This is the latest recevied weather packets stored in our database for station/object ED4YAF-13. If no packets are shown the sender has not sent any weather packets the latest 10 day(s).
| Time | Temp. | Humidity | Pressure | Rain* | Wind** | Luminosity | Snow |
|---|---|---|---|---|---|---|---|
| 1787831848 | 18.89° C | 46% | 1009.5 hPa | - | - | - | - |
| 1787830934 | 17.78° C | 50% | 1010.1 hPa | - | - | - | - |
| 1787830020 | 16.11° C | 53% | 1011.3 hPa | - | - | - | - |
| 1787829120 | 15.56° C | 55% | 1011.9 hPa | - | - | - | - |
| 1787828220 | 16.67° C | 51% | 1011.1 hPa | - | - | - | - |
| 1787827320 | 16.67° C | 54% | 1011.2 hPa | - | - | - | - |
| 1787826420 | 16.67° C | 54% | 1011.2 hPa | - | - | - | - |
| 1787825520 | 14.44° C | 58% | 1012.5 hPa | - | - | - | - |
| 1787824620 | 15.56° C | 59% | 1011.4 hPa | - | - | - | - |
| 1787823720 | 15° C | 61% | 1012 hPa | - | - | - | - |
| 1787822820 | 13.89° C | 62% | 1012.4 hPa | - | - | - | - |
| 1787821920 | 13.33° C | 66% | 1013.1 hPa | - | - | - | - |
| 1787821009 | 13.33° C | 65% | 1012.9 hPa | - | - | - | - |
| 1787820108 | 13.33° C | 67% | 1012.9 hPa | - | - | - | - |
| 1787819208 | 12.78° C | 68% | 1013.1 hPa | - | - | - | - |
| 1787818308 | 12.78° C | 69% | 1013.2 hPa | - | - | - | - |
| 1787817392 | 12.22° C | 71% | 1013.3 hPa | - | - | - | - |
| 1787816500 | 11.11° C | 73% | 1014.2 hPa | - | - | - | - |
| 1787815593 | 11.11° C | 75% | 1014.2 hPa | - | - | - | - |
| 1787814693 | 10.56° C | 77% | 1014.3 hPa | - | - | - | - |
| 1787813793 | 10.56° C | 77% | 1014.3 hPa | - | - | - | - |
| 1787812186 | 10.56° C | 77% | 1014.1 hPa | - | - | - | - |
| 1787811267 | 10° C | 77% | 1014.2 hPa | - | - | - | - |
| 1787810354 | 10° C | 79% | 1014.3 hPa | - | - | - | - |
| 1787809445 | 9.44° C | 80% | 1014.5 hPa | - | - | - | - |
* Rain since midnight (hover to see other rain measurements)
** Current wind speed in m/s (hover to see current wind gust speed)